createdAt,value
2022-10-17T00:00:11.967Z,11.50
2022-10-17T00:03:53.381Z,11.44
2022-10-17T00:07:31.300Z,11.38
2022-10-17T00:11:21.507Z,11.34
2022-10-17T00:14:46.330Z,11.30
2022-10-17T00:18:43.199Z,11.29
2022-10-17T00:22:03.858Z,11.29
2022-10-17T00:25:42.102Z,11.35
2022-10-17T00:29:19.210Z,11.36
2022-10-17T00:32:57.027Z,11.35
2022-10-17T00:36:53.386Z,11.28
2022-10-17T00:40:14.072Z,11.21
2022-10-17T00:43:52.680Z,11.13
2022-10-17T00:47:30.765Z,11.07
2022-10-17T00:51:07.175Z,11.02
2022-10-17T00:54:49.472Z,10.98
2022-10-17T00:58:22.248Z,10.93
2022-10-17T01:02:20.937Z,10.88
2022-10-17T01:05:42.398Z,10.81
2022-10-17T01:09:19.387Z,10.76
2022-10-17T01:13:11.213Z,10.73
2022-10-17T01:17:07.084Z,10.71
2022-10-17T01:20:40.623Z,10.73
2022-10-17T01:24:49.026Z,10.74
2022-10-17T01:28:16.699Z,10.71
2022-10-17T01:32:07.166Z,10.68
2022-10-17T01:36:27.178Z,10.70
2022-10-17T01:40:04.289Z,10.74
2022-10-17T01:43:40.094Z,10.77
2022-10-17T01:47:09.043Z,10.79
2022-10-17T01:51:09.622Z,10.75
2022-10-17T01:54:51.460Z,10.69
2022-10-17T01:58:37.903Z,10.69
2022-10-17T02:02:01.390Z,10.69
2022-10-17T02:05:55.843Z,10.69
2022-10-17T02:09:35.759Z,10.68
2022-10-17T02:13:23.475Z,10.59
2022-10-17T02:17:35.052Z,10.48
2022-10-17T02:21:08.664Z,10.35
2022-10-17T02:24:52.749Z,10.30
2022-10-17T02:28:51.096Z,10.26
2022-10-17T02:35:54.018Z,10.27
2022-10-17T02:39:29.406Z,10.27
2022-10-17T02:43:05.459Z,10.24
2022-10-17T02:46:48.825Z,10.22
2022-10-17T02:54:18.060Z,10.17
2022-10-17T02:58:23.178Z,10.17
2022-10-17T03:01:44.661Z,10.17
2022-10-17T03:05:24.283Z,10.16
2022-10-17T03:08:59.198Z,10.12
2022-10-17T03:12:36.815Z,10.10
2022-10-17T03:16:14.489Z,10.09
2022-10-17T03:19:52.358Z,10.08
2022-10-17T03:23:48.741Z,10.08
2022-10-17T03:27:10.603Z,10.12
2022-10-17T03:30:48.291Z,10.16
2022-10-17T03:34:25.436Z,10.18
2022-10-17T03:38:22.123Z,10.17
2022-10-17T03:41:42.620Z,10.16
2022-10-17T03:45:20.163Z,10.18
2022-10-17T03:48:57.818Z,10.14
2022-10-17T03:52:38.584Z,10.10
2022-10-17T03:56:19.479Z,10.03
2022-10-17T03:59:52.479Z,10.00
2022-10-17T04:03:52.487Z,9.97
2022-10-17T04:07:13.565Z,9.98
2022-10-17T04:10:50.898Z,9.99
2022-10-17T04:14:28.747Z,9.99
2022-10-17T04:18:06.358Z,9.96
2022-10-17T04:21:44.073Z,9.90
2022-10-17T04:25:40.586Z,9.85
2022-10-17T04:29:01.309Z,9.84
2022-10-17T04:32:39.437Z,9.83
2022-10-17T04:36:19.869Z,9.83
2022-10-17T04:39:54.336Z,9.85
2022-10-17T04:43:51.421Z,9.86
2022-10-17T04:47:13.320Z,9.88
2022-10-17T04:51:16.351Z,9.88
2022-10-17T04:54:54.592Z,9.85
2022-10-17T04:58:32.380Z,9.81
2022-10-17T05:02:10.068Z,9.76
2022-10-17T05:05:48.437Z,9.73
2022-10-17T05:09:25.429Z,9.71
2022-10-17T05:13:03.486Z,9.70
2022-10-17T05:16:40.694Z,9.70
2022-10-17T05:20:18.423Z,9.73
2022-10-17T05:23:56.248Z,9.80
2022-10-17T05:27:33.787Z,9.82
2022-10-17T05:31:31.160Z,9.82
2022-10-17T05:34:51.979Z,9.80
2022-10-17T05:38:29.575Z,9.78
2022-10-17T05:42:07.786Z,9.84
2022-10-17T05:45:44.967Z,9.89
2022-10-17T05:49:33.262Z,9.94
2022-10-17T05:53:23.851Z,9.97
2022-10-17T05:56:45.191Z,10.01
2022-10-17T06:00:22.881Z,10.06
2022-10-17T06:04:00.567Z,10.13
2022-10-17T06:07:38.258Z,10.23
2022-10-17T06:11:16.015Z,10.31
2022-10-17T06:14:53.493Z,10.31
2022-10-17T06:18:31.361Z,10.32
2022-10-17T06:22:28.030Z,10.36
2022-10-17T06:25:51.036Z,10.47
2022-10-17T06:29:47.271Z,10.59
2022-10-17T06:33:26.928Z,10.68
2022-10-17T06:36:48.855Z,10.73
2022-10-17T06:40:26.444Z,10.77
2022-10-17T06:44:24.709Z,10.83
2022-10-17T06:48:04.003Z,10.93
2022-10-17T06:51:41.468Z,11.04
2022-10-17T06:55:22.640Z,11.14
2022-10-17T06:59:03.609Z,11.26
2022-10-17T07:02:43.925Z,11.35
2022-10-17T07:06:19.369Z,11.41
2022-10-17T07:09:56.727Z,11.47
2022-10-17T07:13:38.846Z,11.56
2022-10-17T07:17:13.455Z,11.69
2022-10-17T07:20:54.646Z,11.80
2022-10-17T07:24:46.363Z,11.93
2022-10-17T07:36:28.234Z,12.40
2022-10-17T07:40:07.710Z,12.60
2022-10-17T07:44:01.626Z,12.83
2022-10-17T07:47:27.484Z,13.07
2022-10-17T07:51:07.696Z,13.28
2022-10-17T07:55:01.331Z,13.47
2022-10-17T07:58:40.333Z,13.64
2022-10-17T08:02:01.298Z,13.82
2022-10-17T08:05:38.433Z,13.98
2022-10-17T08:09:16.235Z,14.15
2022-10-17T08:12:54.752Z,14.29
2022-10-17T08:16:50.262Z,14.41
2022-10-17T08:20:12.108Z,14.55
2022-10-17T08:23:48.472Z,14.72
2022-10-17T08:27:27.957Z,14.88
2022-10-17T08:31:12.117Z,15.05
2022-10-17T08:34:41.562Z,15.23
2022-10-17T08:38:21.036Z,15.37
2022-10-17T08:42:08.120Z,15.53
2022-10-17T08:46:04.397Z,15.67
2022-10-17T08:49:52.658Z,15.81
2022-10-17T08:53:26.407Z,16.00
2022-10-17T08:57:15.486Z,16.14
2022-10-17T09:00:36.474Z,16.24
2022-10-17T09:04:45.611Z,16.39
2022-10-17T09:08:34.652Z,16.56
2022-10-17T09:12:20.455Z,16.73
2022-10-17T09:16:01.393Z,16.86
2022-10-17T09:20:04.440Z,16.99
2022-10-17T09:23:29.975Z,17.16
2022-10-17T09:27:03.815Z,17.24
2022-10-17T09:30:45.542Z,17.34
2022-10-17T09:34:18.085Z,17.48
2022-10-17T09:37:55.848Z,17.59
2022-10-17T09:41:45.836Z,17.67
2022-10-17T09:45:11.037Z,17.81
2022-10-17T09:52:48.666Z,18.06
2022-10-17T09:56:16.330Z,18.22
2022-10-17T09:59:56.596Z,18.37
2022-10-17T10:03:27.327Z,18.50
2022-10-17T10:07:07.104Z,18.67
2022-10-17T10:10:43.768Z,18.78
2022-10-17T10:14:39.668Z,18.95
2022-10-17T10:18:00.941Z,19.06
2022-10-17T10:21:59.794Z,19.17
2022-10-17T10:25:21.224Z,19.26
2022-10-17T10:29:05.390Z,19.38
2022-10-17T10:32:37.849Z,19.54
2022-10-17T10:36:53.399Z,19.68
2022-10-17T10:40:38.669Z,19.86
2022-10-17T10:43:59.154Z,19.98
2022-10-17T10:48:38.145Z,20.16
2022-10-17T10:52:03.226Z,20.39
2022-10-17T10:56:20.631Z,20.53
2022-10-17T11:00:24.483Z,20.68
2022-10-17T11:04:08.020Z,20.74
2022-10-17T11:07:36.187Z,20.87
2022-10-17T11:11:45.921Z,21.00
2022-10-17T11:15:28.356Z,21.17
2022-10-17T11:19:14.440Z,21.28
2022-10-17T11:22:45.513Z,21.31
2022-10-17T11:26:27.080Z,21.44
2022-10-17T11:29:52.764Z,21.55
2022-10-17T11:33:50.042Z,21.63
2022-10-17T11:37:23.011Z,21.73
2022-10-17T11:40:52.258Z,21.86
2022-10-17T11:44:34.310Z,21.93
2022-10-17T11:48:13.859Z,22.04
2022-10-17T11:52:44.292Z,22.19
2022-10-17T11:56:12.195Z,22.39
2022-10-17T12:00:18.960Z,22.43
2022-10-17T12:03:43.353Z,22.59
2022-10-17T12:07:33.883Z,22.68
2022-10-17T12:11:42.976Z,22.67
2022-10-17T12:15:13.371Z,22.73
2022-10-17T12:19:00.855Z,22.92
2022-10-17T12:22:26.339Z,22.92
2022-10-17T12:26:05.552Z,23.14
2022-10-17T12:29:44.804Z,23.37
2022-10-17T12:33:30.232Z,23.34
2022-10-17T12:37:00.323Z,23.39
2022-10-17T12:40:57.600Z,23.54
2022-10-17T12:44:21.424Z,23.63
2022-10-17T12:48:32.887Z,23.64
2022-10-17T12:52:18.452Z,23.93
2022-10-17T12:55:40.490Z,24.34
2022-10-17T12:59:21.713Z,25.01
2022-10-17T13:03:11.233Z,26.02
2022-10-17T13:06:58.603Z,27.61
2022-10-17T13:14:00.697Z,29.60
2022-10-17T13:17:34.961Z,30.02
2022-10-17T13:21:16.512Z,30.58
2022-10-17T13:24:52.103Z,31.57
2022-10-17T13:28:29.240Z,31.73
2022-10-17T13:32:06.103Z,31.89
2022-10-17T13:35:59.538Z,32.13
2022-10-17T13:39:45.323Z,32.31
2022-10-17T13:43:20.162Z,32.29
2022-10-17T13:46:48.896Z,32.94
2022-10-17T13:50:45.296Z,33.10
2022-10-17T13:54:28.530Z,32.81
2022-10-17T13:58:14.965Z,33.21
2022-10-17T14:01:37.888Z,33.14
2022-10-17T14:05:18.295Z,33.09
2022-10-17T14:09:05.621Z,32.95
2022-10-17T14:12:28.419Z,32.75
2022-10-17T14:16:08.579Z,32.82
2022-10-17T14:19:46.041Z,32.55
2022-10-17T14:23:43.250Z,32.19
2022-10-17T14:27:03.660Z,32.15
2022-10-17T14:30:56.719Z,31.96
2022-10-17T14:34:34.450Z,31.77
2022-10-17T14:38:03.575Z,31.57
2022-10-17T14:41:53.616Z,31.36
2022-10-17T14:45:23.734Z,31.24
2022-10-17T14:48:59.078Z,30.65
2022-10-17T14:52:31.649Z,30.35
2022-10-17T14:56:34.278Z,29.69
2022-10-17T15:00:18.777Z,28.61
2022-10-17T15:03:39.168Z,27.51
2022-10-17T15:07:18.091Z,26.66
2022-10-17T15:10:54.512Z,25.91
2022-10-17T15:14:33.448Z,25.29
2022-10-17T15:18:12.051Z,24.80
2022-10-17T15:21:47.542Z,24.36
2022-10-17T15:25:26.966Z,23.92
2022-10-17T15:29:21.632Z,23.48
2022-10-17T15:32:42.003Z,23.13
2022-10-17T15:36:32.411Z,22.82
2022-10-17T15:39:57.417Z,22.52
2022-10-17T15:43:53.884Z,22.26
2022-10-17T15:47:33.852Z,22.02
2022-10-17T15:51:14.083Z,21.72
2022-10-17T15:54:35.513Z,21.43
2022-10-17T15:58:16.467Z,21.14
2022-10-17T16:02:13.860Z,20.79
2022-10-17T16:05:34.901Z,20.51
2022-10-17T16:09:12.598Z,20.23
2022-10-17T16:12:50.377Z,19.92
2022-10-17T16:16:28.468Z,19.62
2022-10-17T16:20:06.612Z,19.31
2022-10-17T16:23:43.943Z,19.07
2022-10-17T16:27:20.833Z,18.88
2022-10-17T16:30:58.792Z,18.70
2022-10-17T16:34:55.010Z,18.51
2022-10-17T16:38:15.779Z,18.29
2022-10-17T16:41:54.922Z,18.13
2022-10-17T16:45:31.151Z,17.94
2022-10-17T16:49:27.540Z,17.79
2022-10-17T16:52:48.279Z,17.62
2022-10-17T16:56:44.620Z,17.47
2022-10-17T17:00:06.644Z,17.23
2022-10-17T17:03:46.082Z,16.93
2022-10-17T17:07:21.933Z,16.66
2022-10-17T17:10:58.936Z,16.44
2022-10-17T17:14:36.386Z,16.27
2022-10-17T17:18:16.682Z,16.10
2022-10-17T17:22:10.208Z,15.95
2022-10-17T17:25:30.772Z,15.81
2022-10-17T17:29:09.166Z,15.70
2022-10-17T17:32:46.690Z,15.61
2022-10-17T17:36:26.808Z,15.52
2022-10-17T17:40:01.598Z,15.41
2022-10-17T17:43:39.873Z,15.32
2022-10-17T17:47:16.748Z,15.27
2022-10-17T17:50:54.749Z,15.26
2022-10-17T17:54:33.038Z,15.22
2022-10-17T17:58:12.341Z,15.18
2022-10-17T18:02:08.141Z,15.13
2022-10-17T18:05:29.757Z,15.13
2022-10-17T18:09:08.261Z,15.07
2022-10-17T18:12:44.568Z,14.94
2022-10-17T18:16:22.912Z,14.77
2022-10-17T18:19:59.994Z,14.61
2022-10-17T18:23:56.339Z,14.43
2022-10-17T18:27:16.980Z,14.28
2022-10-17T18:31:23.366Z,14.16
2022-10-17T18:34:44.260Z,14.08
2022-10-17T18:38:41.920Z,14.03
2022-10-17T18:42:22.745Z,14.01
2022-10-17T18:45:43.107Z,14.00
2022-10-17T18:49:25.172Z,14.02
2022-10-17T18:53:17.286Z,14.00
2022-10-17T18:56:38.183Z,13.97
2022-10-17T19:00:17.368Z,13.95
2022-10-17T19:04:12.847Z,13.91
2022-10-17T19:07:33.798Z,13.84
2022-10-17T19:11:31.678Z,13.74
2022-10-17T19:14:53.116Z,13.65
2022-10-17T19:18:29.632Z,13.58
2022-10-17T19:22:09.544Z,13.51
2022-10-17T19:25:45.063Z,13.47
2022-10-17T19:29:27.566Z,13.44
2022-10-17T19:33:00.558Z,13.37
2022-10-17T19:36:38.504Z,13.27
2022-10-17T19:40:40.212Z,13.14
2022-10-17T19:47:40.960Z,12.86
2022-10-17T19:51:20.252Z,12.77
2022-10-17T19:55:15.043Z,12.68
2022-10-17T19:58:45.138Z,12.60
2022-10-17T20:02:14.096Z,12.53
2022-10-17T20:05:52.190Z,12.52
2022-10-17T20:09:28.778Z,12.54
2022-10-17T20:13:06.347Z,12.61
2022-10-17T20:16:50.132Z,12.70
2022-10-17T20:20:21.932Z,12.76
2022-10-17T20:24:00.805Z,12.77
2022-10-17T20:27:55.823Z,12.76
2022-10-17T20:31:19.020Z,12.73
2022-10-17T20:34:54.669Z,12.71
2022-10-17T20:38:58.000Z,12.72
2022-10-17T20:42:37.992Z,12.77
2022-10-17T20:46:08.521Z,12.79
2022-10-17T20:49:37.323Z,12.78
2022-10-17T20:53:37.691Z,12.74
2022-10-17T20:57:01.205Z,12.69
2022-10-17T21:00:40.718Z,12.61
2022-10-17T21:04:44.840Z,12.53
2022-10-17T21:07:56.233Z,12.48
2022-10-17T21:11:33.818Z,12.47
2022-10-17T21:15:12.004Z,12.47
2022-10-17T21:18:49.461Z,12.46
2022-10-17T21:22:27.258Z,12.47
2022-10-17T21:26:05.963Z,12.45
2022-10-17T21:29:42.690Z,12.40
2022-10-17T21:33:21.661Z,12.35
2022-10-17T21:36:57.760Z,12.27
2022-10-17T21:40:56.030Z,12.19
2022-10-17T21:44:19.682Z,12.07
2022-10-17T21:48:12.172Z,11.93
2022-10-17T21:51:34.370Z,11.85
2022-10-17T21:55:11.768Z,11.78
2022-10-17T21:58:50.997Z,11.70
2022-10-17T22:02:28.864Z,11.62
2022-10-17T22:06:12.915Z,11.54
2022-10-17T22:09:48.917Z,11.44
2022-10-17T22:13:25.927Z,11.34
2022-10-17T22:17:03.657Z,11.24
2022-10-17T22:20:41.612Z,11.18
2022-10-17T22:28:15.463Z,11.11
2022-10-17T22:31:37.357Z,11.09
2022-10-17T22:35:14.140Z,11.05
2022-10-17T22:39:10.729Z,11.01
2022-10-17T22:42:34.416Z,10.98
2022-10-17T22:46:10.279Z,10.95
2022-10-17T22:49:46.829Z,10.92
2022-10-17T22:53:43.180Z,10.89
2022-10-17T22:57:03.325Z,10.86
2022-10-17T23:00:40.972Z,10.82
2022-10-17T23:04:18.646Z,10.78
2022-10-17T23:07:57.448Z,10.69
2022-10-17T23:11:33.981Z,10.58
2022-10-17T23:15:11.704Z,10.49
2022-10-17T23:18:49.592Z,10.41
2022-10-17T23:22:27.130Z,10.34
2022-10-17T23:26:12.832Z,10.28
2022-10-17T23:29:42.375Z,10.26
2022-10-17T23:33:40.596Z,10.24
2022-10-17T23:37:01.316Z,10.21
2022-10-17T23:40:39.101Z,10.17
2022-10-17T23:44:16.581Z,10.09
2022-10-17T23:47:54.871Z,9.99
2022-10-17T23:51:50.892Z,9.91
2022-10-17T23:55:12.425Z,9.83
2022-10-17T23:58:49.185Z,9.77
